createdAt,value
2022-12-23T00:00:34.100Z,-24.9
2022-12-23T00:05:53.234Z,-24.6
2022-12-23T00:16:32.198Z,-24.4
2022-12-23T00:27:10.166Z,-24.4
2022-12-23T00:32:29.203Z,-24.4
2022-12-23T00:43:07.614Z,-24.8
2022-12-23T00:48:27.218Z,-24.9
2022-12-23T00:53:46.105Z,-24.4
2022-12-23T00:59:05.068Z,-25.3
2022-12-23T01:04:23.849Z,-24.2
2022-12-23T01:09:43.461Z,-24.9
2022-12-23T01:15:02.535Z,-25
2022-12-23T01:20:21.726Z,-24.7
2022-12-23T01:25:41.200Z,-24.3
2022-12-23T01:36:19.881Z,-24.8
2022-12-23T01:41:39.433Z,-25.1
2022-12-23T01:46:58.548Z,-24.4
2022-12-23T01:52:18.042Z,-24
2022-12-23T01:57:37.372Z,-24.5
2022-12-23T02:02:57.155Z,-24.3
2022-12-23T02:08:15.897Z,-25
2022-12-23T02:18:55.158Z,-24
2022-12-23T02:24:13.907Z,-24.4
2022-12-23T02:29:33.677Z,-24.6
2022-12-23T02:34:52.431Z,-24.6
2022-12-23T02:40:11.226Z,-25
2022-12-23T02:45:30.594Z,-24.1
2022-12-23T02:50:49.609Z,-29.5
2022-12-23T03:01:28.134Z,-24.9
2022-12-23T03:06:47.543Z,-24.5
2022-12-23T03:17:26.599Z,-25
2022-12-23T03:22:45.727Z,-25
2022-12-23T03:28:05.052Z,-24
2022-12-23T03:33:24.299Z,-24.3
2022-12-23T03:44:02.466Z,-24.1
2022-12-23T03:49:21.456Z,-24.5
2022-12-23T03:59:59.977Z,-24.5
2022-12-23T04:10:38.006Z,-24.2
2022-12-23T04:15:57.512Z,-24.3
2022-12-23T04:21:16.304Z,-24.7
2022-12-23T04:26:36.703Z,-25
2022-12-23T04:31:55.204Z,-24.4
2022-12-23T04:42:33.561Z,-25.1
2022-12-23T04:47:53.040Z,-24.3
2022-12-23T04:53:12.284Z,-24.7
2022-12-23T04:58:31.529Z,-24.3
2022-12-23T05:09:09.582Z,-25.1
2022-12-23T05:14:29.055Z,-24.4
2022-12-23T05:25:08.261Z,-25.4
2022-12-23T05:30:27.491Z,-24
2022-12-23T05:41:05.639Z,-27.3
2022-12-23T05:46:26.954Z,-25.1
2022-12-23T05:51:43.777Z,-24.5
2022-12-23T05:57:03.302Z,-24.4
2022-12-23T06:07:42.572Z,-24.6
2022-12-23T06:13:02.160Z,-24.1
2022-12-23T06:23:40.272Z,-24.4
2022-12-23T06:28:59.675Z,-24.4
2022-12-23T06:34:19.368Z,-24.6
2022-12-23T06:39:38.498Z,-24.6
2022-12-23T06:44:57.959Z,-24.2
2022-12-23T06:50:17.703Z,-24.4
2022-12-23T06:55:35.992Z,-24.3
2022-12-23T07:06:14.960Z,-24.5
2022-12-23T07:11:34.574Z,-24.4
2022-12-23T07:16:53.631Z,-25.5
2022-12-23T07:22:12.788Z,-24.8
2022-12-23T07:27:32.537Z,-25.4
2022-12-23T07:32:51.981Z,-24.6
2022-12-23T07:38:11.532Z,-22
2022-12-23T07:48:50.228Z,-14.6
2022-12-23T07:59:28.673Z,-10.5
2022-12-23T08:04:47.897Z,-21
2022-12-23T08:10:07.282Z,-24.7
2022-12-23T08:15:26.952Z,-9.5
2022-12-23T08:26:04.685Z,-15.1
2022-12-23T08:31:23.704Z,-8.2
2022-12-23T08:42:01.740Z,-5.9
2022-12-23T08:52:40.147Z,-11.7
2022-12-23T08:57:59.281Z,-10.7
2022-12-23T09:08:37.946Z,14.9
2022-12-23T09:13:57.818Z,22.8
2022-12-23T09:24:36.586Z,19.7
2022-12-23T09:29:55.804Z,11.2
2022-12-23T09:35:15.316Z,15.7
2022-12-23T09:40:34.825Z,6.2
2022-12-23T09:45:54.542Z,15.3
2022-12-23T09:51:13.685Z,14.8
2022-12-23T09:56:32.444Z,12.7
2022-12-23T10:01:52.005Z,8.6
2022-12-23T10:07:11.188Z,16.79
2022-12-23T10:12:32.928Z,13.9
2022-12-23T10:17:49.585Z,13.9
2022-12-23T10:23:43.237Z,0.7
2022-12-23T10:29:01.781Z,-6.1
2022-12-23T10:34:20.595Z,2.9
2022-12-23T10:39:39.482Z,11.7
2022-12-23T10:44:58.412Z,9.5
2022-12-23T10:55:37.064Z,-0.6
2022-12-23T11:06:14.990Z,-7.6
2022-12-23T11:11:33.880Z,-8.89
2022-12-23T11:16:52.901Z,-12.8
2022-12-23T11:22:12.373Z,-7.6
2022-12-23T11:27:31.529Z,10.7
2022-12-23T11:38:10.545Z,1.7
2022-12-23T11:43:29.692Z,-4.3
2022-12-23T11:48:54.495Z,-0.1
2022-12-23T11:54:08.389Z,-3.8
2022-12-23T11:59:28.079Z,-3.5
2022-12-23T12:04:47.074Z,-12.2
2022-12-23T12:10:06.623Z,-7.7
2022-12-23T12:20:45.301Z,-9.6
2022-12-23T12:26:04.735Z,-3
2022-12-23T12:31:23.741Z,-6.8
2022-12-23T12:36:42.700Z,-9.39
2022-12-23T12:47:45.078Z,-12.6
2022-12-23T12:52:40.996Z,-6.6
2022-12-23T13:03:19.476Z,-8.3
2022-12-23T13:08:38.918Z,-8.3
2022-12-23T13:19:17.677Z,-14.1
2022-12-23T13:24:37.235Z,-16.9
2022-12-23T13:29:58.417Z,-14.4
2022-12-23T13:35:15.794Z,-17.5
2022-12-23T13:40:35.489Z,-19.6
2022-12-23T13:45:54.532Z,-16.1
2022-12-23T13:51:13.580Z,-14.2
2022-12-23T14:01:52.950Z,-21.9
2022-12-23T14:07:11.594Z,-21.5
2022-12-23T14:17:50.732Z,-23.2
2022-12-23T14:28:29.264Z,-21.9
2022-12-23T14:33:48.713Z,-23.2
2022-12-23T14:39:08.031Z,-23.5
2022-12-23T14:44:26.806Z,-24.3
2022-12-23T14:49:46.284Z,-24.6
2022-12-23T14:55:28.818Z,-26
2022-12-23T15:00:24.740Z,-26.1
2022-12-23T15:05:43.839Z,-25.4
2022-12-23T15:11:03.605Z,-25
2022-12-23T15:16:22.601Z,-24.8
2022-12-23T15:21:41.411Z,-25.3
2022-12-23T15:27:26.948Z,-25
2022-12-23T15:37:38.592Z,-24.6
2022-12-23T15:42:58.190Z,-25.4
2022-12-23T15:48:17.913Z,-25.4
2022-12-23T15:53:37.230Z,-25.1
2022-12-23T15:58:56.912Z,-24.9
2022-12-23T16:04:16.096Z,-25.7
2022-12-23T16:09:34.987Z,-25.5
2022-12-23T16:20:13.471Z,-25.2
2022-12-23T16:25:33.198Z,-25.7
2022-12-23T16:36:12.283Z,-25.2
2022-12-23T16:41:31.949Z,-25.2
2022-12-23T16:46:50.844Z,-25
2022-12-23T16:52:09.349Z,-25.4
2022-12-23T17:02:47.869Z,-25.4
2022-12-23T17:08:07.339Z,-25.4
2022-12-23T17:13:26.156Z,-25.8
2022-12-23T17:18:45.820Z,-25.3
2022-12-23T17:29:24.715Z,-25.5
2022-12-23T17:34:43.915Z,-25.4
2022-12-23T17:40:02.926Z,-24.9
2022-12-23T17:45:21.924Z,-25.5
2022-12-23T17:50:40.788Z,-25.1
2022-12-23T18:01:18.798Z,-24.9
2022-12-23T18:06:37.750Z,-24.9
2022-12-23T18:11:56.960Z,-26.1
2022-12-23T18:17:15.942Z,-24.8
2022-12-23T18:22:45.448Z,-25.1
2022-12-23T18:27:54.470Z,-25.7
2022-12-23T18:33:13.631Z,-25.8
2022-12-23T18:43:51.720Z,-24.6
2022-12-23T18:49:11.151Z,-24.4
2022-12-23T18:54:30.181Z,-25.4
2022-12-23T18:59:49.528Z,-24.9
2022-12-23T19:10:28.029Z,-25.1
2022-12-23T19:15:47.624Z,-25.5
2022-12-23T19:26:26.138Z,-25
2022-12-23T19:31:45.341Z,-25
2022-12-23T19:37:04.555Z,-25.6
2022-12-23T19:42:23.574Z,-26
2022-12-23T19:47:43.187Z,-25.3
2022-12-23T19:53:02.441Z,-24.9
2022-12-23T19:58:22.034Z,-24.6
2022-12-23T20:09:01.391Z,-25.4
2022-12-23T20:14:19.798Z,-25.4
2022-12-23T20:24:57.926Z,-25.4
2022-12-23T20:30:17.493Z,-24.8
2022-12-23T20:35:36.577Z,-24.7
2022-12-23T20:40:56.028Z,-24.7
2022-12-23T20:46:15.174Z,-24.8
2022-12-23T20:51:33.956Z,-24.8
2022-12-23T20:56:52.900Z,-25.7
2022-12-23T21:07:31.904Z,-24.7
2022-12-23T21:12:51.446Z,-25
2022-12-23T21:18:10.359Z,-25
2022-12-23T21:23:29.857Z,-24.4
2022-12-23T21:28:49.830Z,-24.9
2022-12-23T21:34:08.586Z,-24.8
2022-12-23T21:44:46.440Z,-24.9
2022-12-23T21:50:05.846Z,-24.9
2022-12-23T21:55:24.409Z,-28.3
2022-12-23T22:00:43.636Z,-25.1
2022-12-23T22:06:06.834Z,-24.6
2022-12-23T22:11:22.374Z,-24.5
2022-12-23T22:16:42.068Z,-29.4
2022-12-23T22:27:21.492Z,-24.4
2022-12-23T22:32:42.499Z,-24.5
2022-12-23T22:43:18.109Z,-24.8
2022-12-23T22:48:37.075Z,-26.1
2022-12-23T22:53:55.965Z,-25.4
2022-12-23T22:59:15.018Z,-24.7
2022-12-23T23:04:33.731Z,-25.4
2022-12-23T23:09:52.545Z,-24.5
2022-12-23T23:15:12.262Z,-25.2
2022-12-23T23:25:50.976Z,-24.6
2022-12-23T23:31:40.290Z,-25
2022-12-23T23:36:29.057Z,-25.4
2022-12-23T23:41:48.483Z,-24.8
2022-12-23T23:47:08.043Z,-25.5
2022-12-23T23:52:27.702Z,-24.7
2022-12-23T23:57:47.069Z,-26.1
